sensor_id;sensor_type;location;lat;lon;timestamp;P1;durP1;ratioP1;P2;durP2;ratioP2
2802;SDS011;1409;51.154;6.938;2024-03-08T00:00:19;14.53;;;10.03;;
2802;SDS011;1409;51.154;6.938;2024-03-08T00:02:48;14.17;;;9.77;;
2802;SDS011;1409;51.154;6.938;2024-03-08T00:05:18;15.03;;;9.63;;
2802;SDS011;1409;51.154;6.938;2024-03-08T00:07:48;14.50;;;10.30;;
2802;SDS011;1409;51.154;6.938;2024-03-08T00:10:16;17.57;;;10.20;;
2802;SDS011;1409;51.154;6.938;2024-03-08T00:12:48;13.73;;;11.07;;
2802;SDS011;1409;51.154;6.938;2024-03-08T00:15:18;16.27;;;11.50;;
2802;SDS011;1409;51.154;6.938;2024-03-08T00:17:46;14.33;;;10.40;;
2802;SDS011;1409;51.154;6.938;2024-03-08T00:20:15;13.67;;;10.17;;
2802;SDS011;1409;51.154;6.938;2024-03-08T00:22:46;14.30;;;9.63;;
2802;SDS011;1409;51.154;6.938;2024-03-08T00:25:15;14.13;;;10.07;;
2802;SDS011;1409;51.154;6.938;2024-03-08T00:27:44;13.93;;;10.53;;
2802;SDS011;1409;51.154;6.938;2024-03-08T00:30:16;14.30;;;9.97;;
2802;SDS011;1409;51.154;6.938;2024-03-08T00:32:44;13.27;;;9.93;;
2802;SDS011;1409;51.154;6.938;2024-03-08T00:35:13;14.47;;;9.53;;
2802;SDS011;1409;51.154;6.938;2024-03-08T00:37:41;14.03;;;9.73;;
2802;SDS011;1409;51.154;6.938;2024-03-08T00:40:13;16.63;;;11.10;;
2802;SDS011;1409;51.154;6.938;2024-03-08T00:42:43;14.23;;;10.53;;
2802;SDS011;1409;51.154;6.938;2024-03-08T00:45:11;15.70;;;10.77;;
2802;SDS011;1409;51.154;6.938;2024-03-08T00:47:40;18.73;;;10.87;;
2802;SDS011;1409;51.154;6.938;2024-03-08T00:50:10;14.50;;;10.37;;
2802;SDS011;1409;51.154;6.938;2024-03-08T00:52:40;15.73;;;9.30;;
2802;SDS011;1409;51.154;6.938;2024-03-08T00:55:08;16.73;;;11.10;;
2802;SDS011;1409;51.154;6.938;2024-03-08T00:57:37;14.57;;;9.77;;
2802;SDS011;1409;51.154;6.938;2024-03-08T01:00:08;15.37;;;10.43;;
2802;SDS011;1409;51.154;6.938;2024-03-08T01:02:39;14.63;;;10.23;;
2802;SDS011;1409;51.154;6.938;2024-03-08T01:05:08;12.50;;;9.13;;
2802;SDS011;1409;51.154;6.938;2024-03-08T01:07:36;13.63;;;9.17;;
2802;SDS011;1409;51.154;6.938;2024-03-08T01:10:05;15.40;;;10.43;;
2802;SDS011;1409;51.154;6.938;2024-03-08T01:12:36;14.30;;;9.53;;
2802;SDS011;1409;51.154;6.938;2024-03-08T01:15:05;14.33;;;10.27;;
2802;SDS011;1409;51.154;6.938;2024-03-08T01:17:36;16.57;;;10.20;;
2802;SDS011;1409;51.154;6.938;2024-03-08T01:20:05;15.53;;;9.43;;
2802;SDS011;1409;51.154;6.938;2024-03-08T01:22:37;14.77;;;9.97;;
2802;SDS011;1409;51.154;6.938;2024-03-08T01:25:05;16.27;;;10.33;;
2802;SDS011;1409;51.154;6.938;2024-03-08T01:27:38;14.57;;;10.40;;
2802;SDS011;1409;51.154;6.938;2024-03-08T01:30:06;16.37;;;10.53;;
2802;SDS011;1409;51.154;6.938;2024-03-08T01:32:38;14.43;;;9.90;;
2802;SDS011;1409;51.154;6.938;2024-03-08T01:35:07;13.53;;;9.50;;
2802;SDS011;1409;51.154;6.938;2024-03-08T01:37:37;17.00;;;9.43;;
2802;SDS011;1409;51.154;6.938;2024-03-08T01:40:06;15.70;;;9.97;;
2802;SDS011;1409;51.154;6.938;2024-03-08T01:42:36;15.13;;;10.43;;
2802;SDS011;1409;51.154;6.938;2024-03-08T01:45:05;16.37;;;11.03;;
2802;SDS011;1409;51.154;6.938;2024-03-08T01:47:34;19.10;;;10.93;;
2802;SDS011;1409;51.154;6.938;2024-03-08T01:50:04;14.13;;;10.83;;
2802;SDS011;1409;51.154;6.938;2024-03-08T01:52:33;12.27;;;8.20;;
2802;SDS011;1409;51.154;6.938;2024-03-08T01:55:02;14.93;;;10.63;;
2802;SDS011;1409;51.154;6.938;2024-03-08T01:57:33;17.33;;;10.60;;
2802;SDS011;1409;51.154;6.938;2024-03-08T02:00:04;16.30;;;9.23;;
2802;SDS011;1409;51.154;6.938;2024-03-08T02:02:33;13.73;;;9.53;;
2802;SDS011;1409;51.154;6.938;2024-03-08T02:05:02;12.73;;;8.97;;
2802;SDS011;1409;51.154;6.938;2024-03-08T02:07:31;12.63;;;9.80;;
2802;SDS011;1409;51.154;6.938;2024-03-08T02:10:00;15.10;;;10.17;;
2802;SDS011;1409;51.154;6.938;2024-03-08T02:12:28;15.33;;;9.83;;
2802;SDS011;1409;51.154;6.938;2024-03-08T02:14:57;17.27;;;10.40;;
2802;SDS011;1409;51.154;6.938;2024-03-08T02:17:26;15.67;;;10.20;;
2802;SDS011;1409;51.154;6.938;2024-03-08T02:19:54;16.30;;;10.17;;
2802;SDS011;1409;51.154;6.938;2024-03-08T02:22:27;15.17;;;10.20;;
2802;SDS011;1409;51.154;6.938;2024-03-08T02:24:56;13.30;;;9.73;;
2802;SDS011;1409;51.154;6.938;2024-03-08T02:27:27;13.13;;;10.30;;
2802;SDS011;1409;51.154;6.938;2024-03-08T02:29:56;17.40;;;11.13;;
2802;SDS011;1409;51.154;6.938;2024-03-08T02:32:26;16.80;;;10.50;;
2802;SDS011;1409;51.154;6.938;2024-03-08T02:34:55;13.97;;;9.90;;
2802;SDS011;1409;51.154;6.938;2024-03-08T02:37:28;15.23;;;10.23;;
2802;SDS011;1409;51.154;6.938;2024-03-08T02:39:56;18.57;;;11.13;;
2802;SDS011;1409;51.154;6.938;2024-03-08T02:42:25;14.47;;;10.00;;
2802;SDS011;1409;51.154;6.938;2024-03-08T02:44:54;16.40;;;10.20;;
2802;SDS011;1409;51.154;6.938;2024-03-08T02:47:22;14.13;;;10.73;;
2802;SDS011;1409;51.154;6.938;2024-03-08T02:49:53;14.80;;;10.53;;
2802;SDS011;1409;51.154;6.938;2024-03-08T02:52:22;21.13;;;12.00;;
2802;SDS011;1409;51.154;6.938;2024-03-08T02:54:52;18.70;;;10.73;;
2802;SDS011;1409;51.154;6.938;2024-03-08T02:57:20;16.37;;;10.87;;
2802;SDS011;1409;51.154;6.938;2024-03-08T02:59:49;15.77;;;9.87;;
2802;SDS011;1409;51.154;6.938;2024-03-08T03:02:18;14.73;;;9.60;;
2802;SDS011;1409;51.154;6.938;2024-03-08T03:04:47;15.00;;;10.47;;
2802;SDS011;1409;51.154;6.938;2024-03-08T03:07:16;17.90;;;10.97;;
2802;SDS011;1409;51.154;6.938;2024-03-08T03:09:44;15.87;;;10.13;;
2802;SDS011;1409;51.154;6.938;2024-03-08T03:12:14;13.30;;;9.83;;
2802;SDS011;1409;51.154;6.938;2024-03-08T03:14:42;15.37;;;10.47;;
2802;SDS011;1409;51.154;6.938;2024-03-08T03:17:11;16.17;;;9.67;;
2802;SDS011;1409;51.154;6.938;2024-03-08T03:19:40;15.90;;;10.53;;
2802;SDS011;1409;51.154;6.938;2024-03-08T03:22:09;16.00;;;10.50;;
2802;SDS011;1409;51.154;6.938;2024-03-08T03:24:38;14.77;;;9.43;;
2802;SDS011;1409;51.154;6.938;2024-03-08T03:27:06;15.60;;;9.60;;
2802;SDS011;1409;51.154;6.938;2024-03-08T03:29:39;14.87;;;9.87;;
2802;SDS011;1409;51.154;6.938;2024-03-08T03:32:08;12.97;;;9.40;;
2802;SDS011;1409;51.154;6.938;2024-03-08T03:34:38;15.80;;;10.03;;
2802;SDS011;1409;51.154;6.938;2024-03-08T03:37:06;15.73;;;9.73;;
2802;SDS011;1409;51.154;6.938;2024-03-08T03:39:39;15.20;;;10.37;;
2802;SDS011;1409;51.154;6.938;2024-03-08T03:42:15;17.17;;;10.47;;
2802;SDS011;1409;51.154;6.938;2024-03-08T03:44:45;17.90;;;11.33;;
2802;SDS011;1409;51.154;6.938;2024-03-08T03:47:14;14.80;;;9.50;;
2802;SDS011;1409;51.154;6.938;2024-03-08T03:49:43;17.23;;;10.10;;
2802;SDS011;1409;51.154;6.938;2024-03-08T03:52:11;15.90;;;10.07;;
2802;SDS011;1409;51.154;6.938;2024-03-08T03:54:40;14.47;;;9.27;;
2802;SDS011;1409;51.154;6.938;2024-03-08T03:57:08;14.43;;;9.27;;
2802;SDS011;1409;51.154;6.938;2024-03-08T03:59:38;14.50;;;10.17;;
2802;SDS011;1409;51.154;6.938;2024-03-08T04:02:10;17.20;;;10.93;;
2802;SDS011;1409;51.154;6.938;2024-03-08T04:04:38;13.67;;;10.10;;
2802;SDS011;1409;51.154;6.938;2024-03-08T04:07:07;15.17;;;10.00;;
2802;SDS011;1409;51.154;6.938;2024-03-08T04:09:37;15.20;;;11.00;;
2802;SDS011;1409;51.154;6.938;2024-03-08T04:12:05;14.67;;;11.07;;
2802;SDS011;1409;51.154;6.938;2024-03-08T04:14:36;15.60;;;10.17;;
2802;SDS011;1409;51.154;6.938;2024-03-08T04:17:06;18.27;;;10.97;;
2802;SDS011;1409;51.154;6.938;2024-03-08T04:19:36;16.80;;;11.03;;
2802;SDS011;1409;51.154;6.938;2024-03-08T04:22:06;24.20;;;11.27;;
2802;SDS011;1409;51.154;6.938;2024-03-08T04:24:34;16.43;;;9.90;;
2802;SDS011;1409;51.154;6.938;2024-03-08T04:27:03;13.87;;;9.90;;
2802;SDS011;1409;51.154;6.938;2024-03-08T04:29:31;14.43;;;10.17;;
2802;SDS011;1409;51.154;6.938;2024-03-08T04:32:01;13.30;;;9.97;;
2802;SDS011;1409;51.154;6.938;2024-03-08T04:34:30;14.90;;;9.87;;
2802;SDS011;1409;51.154;6.938;2024-03-08T04:37:01;15.53;;;10.37;;
2802;SDS011;1409;51.154;6.938;2024-03-08T04:39:31;15.17;;;9.97;;
2802;SDS011;1409;51.154;6.938;2024-03-08T04:42:00;14.23;;;9.53;;
2802;SDS011;1409;51.154;6.938;2024-03-08T04:44:32;19.67;;;11.97;;
2802;SDS011;1409;51.154;6.938;2024-03-08T04:47:01;13.60;;;9.67;;
2802;SDS011;1409;51.154;6.938;2024-03-08T04:49:29;16.40;;;10.50;;
2802;SDS011;1409;51.154;6.938;2024-03-08T04:51:58;18.00;;;11.00;;
2802;SDS011;1409;51.154;6.938;2024-03-08T04:54:27;18.00;;;10.00;;
2802;SDS011;1409;51.154;6.938;2024-03-08T04:56:56;15.23;;;9.93;;
2802;SDS011;1409;51.154;6.938;2024-03-08T04:59:26;15.20;;;10.07;;
2802;SDS011;1409;51.154;6.938;2024-03-08T05:01:54;17.43;;;10.53;;
2802;SDS011;1409;51.154;6.938;2024-03-08T05:04:23;13.77;;;9.17;;
2802;SDS011;1409;51.154;6.938;2024-03-08T05:06:52;15.40;;;9.97;;
2802;SDS011;1409;51.154;6.938;2024-03-08T05:09:20;15.40;;;10.07;;
2802;SDS011;1409;51.154;6.938;2024-03-08T05:11:51;16.30;;;8.97;;
2802;SDS011;1409;51.154;6.938;2024-03-08T05:14:20;14.10;;;9.50;;
2802;SDS011;1409;51.154;6.938;2024-03-08T05:16:48;16.13;;;9.67;;
2802;SDS011;1409;51.154;6.938;2024-03-08T05:19:17;16.70;;;10.70;;
2802;SDS011;1409;51.154;6.938;2024-03-08T05:21:46;14.27;;;9.80;;
2802;SDS011;1409;51.154;6.938;2024-03-08T05:24:14;17.33;;;10.50;;
2802;SDS011;1409;51.154;6.938;2024-03-08T05:26:44;17.13;;;11.30;;
2802;SDS011;1409;51.154;6.938;2024-03-08T05:29:15;14.93;;;10.10;;
2802;SDS011;1409;51.154;6.938;2024-03-08T05:31:46;17.57;;;10.80;;
2802;SDS011;1409;51.154;6.938;2024-03-08T05:34:14;15.57;;;10.10;;
2802;SDS011;1409;51.154;6.938;2024-03-08T05:36:43;18.53;;;10.33;;
2802;SDS011;1409;51.154;6.938;2024-03-08T05:39:12;14.03;;;9.80;;
2802;SDS011;1409;51.154;6.938;2024-03-08T05:41:41;16.50;;;10.50;;
2802;SDS011;1409;51.154;6.938;2024-03-08T05:44:10;16.43;;;10.40;;
2802;SDS011;1409;51.154;6.938;2024-03-08T05:46:40;17.47;;;10.47;;
2802;SDS011;1409;51.154;6.938;2024-03-08T05:49:09;16.80;;;10.43;;
2802;SDS011;1409;51.154;6.938;2024-03-08T05:51:38;19.10;;;11.70;;
2802;SDS011;1409;51.154;6.938;2024-03-08T05:54:08;15.90;;;10.40;;
2802;SDS011;1409;51.154;6.938;2024-03-08T05:56:38;17.07;;;11.60;;
2802;SDS011;1409;51.154;6.938;2024-03-08T05:59:08;22.90;;;11.67;;
2802;SDS011;1409;51.154;6.938;2024-03-08T06:01:37;17.67;;;10.33;;
2802;SDS011;1409;51.154;6.938;2024-03-08T06:04:09;19.17;;;11.67;;
2802;SDS011;1409;51.154;6.938;2024-03-08T06:06:38;18.63;;;10.60;;
2802;SDS011;1409;51.154;6.938;2024-03-08T06:09:08;17.67;;;11.03;;
2802;SDS011;1409;51.154;6.938;2024-03-08T06:11:39;20.70;;;10.87;;
2802;SDS011;1409;51.154;6.938;2024-03-08T06:14:09;17.00;;;11.00;;
2802;SDS011;1409;51.154;6.938;2024-03-08T06:16:37;18.07;;;10.47;;
2802;SDS011;1409;51.154;6.938;2024-03-08T06:19:06;14.23;;;9.53;;
2802;SDS011;1409;51.154;6.938;2024-03-08T06:21:36;14.83;;;11.40;;
2802;SDS011;1409;51.154;6.938;2024-03-08T06:24:04;15.53;;;11.20;;
2802;SDS011;1409;51.154;6.938;2024-03-08T06:26:33;14.33;;;10.40;;
2802;SDS011;1409;51.154;6.938;2024-03-08T06:29:05;18.63;;;11.80;;
2802;SDS011;1409;51.154;6.938;2024-03-08T06:31:34;15.40;;;11.03;;
2802;SDS011;1409;51.154;6.938;2024-03-08T06:34:05;17.20;;;10.80;;
2802;SDS011;1409;51.154;6.938;2024-03-08T06:36:36;13.77;;;10.07;;
2802;SDS011;1409;51.154;6.938;2024-03-08T06:39:05;15.83;;;11.27;;
2802;SDS011;1409;51.154;6.938;2024-03-08T06:41:36;18.23;;;11.97;;
2802;SDS011;1409;51.154;6.938;2024-03-08T06:44:05;18.03;;;11.53;;
2802;SDS011;1409;51.154;6.938;2024-03-08T06:46:35;19.03;;;12.30;;
2802;SDS011;1409;51.154;6.938;2024-03-08T06:49:04;15.00;;;10.20;;
2802;SDS011;1409;51.154;6.938;2024-03-08T06:51:34;19.57;;;12.20;;
2802;SDS011;1409;51.154;6.938;2024-03-08T06:54:04;17.77;;;11.77;;
2802;SDS011;1409;51.154;6.938;2024-03-08T06:56:35;19.00;;;11.33;;
2802;SDS011;1409;51.154;6.938;2024-03-08T06:59:05;20.03;;;11.80;;
2802;SDS011;1409;51.154;6.938;2024-03-08T07:01:39;15.90;;;10.53;;
2802;SDS011;1409;51.154;6.938;2024-03-08T07:04:07;16.60;;;11.40;;
2802;SDS011;1409;51.154;6.938;2024-03-08T07:06:38;15.77;;;10.97;;
2802;SDS011;1409;51.154;6.938;2024-03-08T07:09:08;20.33;;;12.00;;
2802;SDS011;1409;51.154;6.938;2024-03-08T07:11:38;16.40;;;11.57;;
2802;SDS011;1409;51.154;6.938;2024-03-08T07:14:10;18.03;;;11.07;;
2802;SDS011;1409;51.154;6.938;2024-03-08T07:16:42;16.87;;;11.33;;
2802;SDS011;1409;51.154;6.938;2024-03-08T07:19:11;17.97;;;12.10;;
2802;SDS011;1409;51.154;6.938;2024-03-08T07:21:39;17.73;;;11.50;;
2802;SDS011;1409;51.154;6.938;2024-03-08T07:24:09;15.47;;;11.07;;
2802;SDS011;1409;51.154;6.938;2024-03-08T07:26:54;14.97;;;10.87;;
2802;SDS011;1409;51.154;6.938;2024-03-08T07:29:22;16.87;;;11.80;;
2802;SDS011;1409;51.154;6.938;2024-03-08T07:31:51;18.00;;;10.67;;
2802;SDS011;1409;51.154;6.938;2024-03-08T07:34:28;15.73;;;11.37;;
2802;SDS011;1409;51.154;6.938;2024-03-08T07:36:58;15.87;;;10.87;;
2802;SDS011;1409;51.154;6.938;2024-03-08T07:39:28;16.70;;;11.40;;
2802;SDS011;1409;51.154;6.938;2024-03-08T07:41:56;18.43;;;12.30;;
2802;SDS011;1409;51.154;6.938;2024-03-08T07:44:24;18.07;;;11.03;;
2802;SDS011;1409;51.154;6.938;2024-03-08T07:46:52;15.93;;;11.00;;
2802;SDS011;1409;51.154;6.938;2024-03-08T07:49:23;15.47;;;10.93;;
2802;SDS011;1409;51.154;6.938;2024-03-08T07:51:52;18.27;;;11.23;;
2802;SDS011;1409;51.154;6.938;2024-03-08T07:54:19;14.07;;;10.17;;
2802;SDS011;1409;51.154;6.938;2024-03-08T07:56:49;15.40;;;11.33;;
2802;SDS011;1409;51.154;6.938;2024-03-08T07:59:19;16.67;;;11.60;;
2802;SDS011;1409;51.154;6.938;2024-03-08T08:01:47;14.20;;;10.37;;
2802;SDS011;1409;51.154;6.938;2024-03-08T08:04:16;16.20;;;11.10;;
2802;SDS011;1409;51.154;6.938;2024-03-08T08:06:45;15.40;;;10.00;;
2802;SDS011;1409;51.154;6.938;2024-03-08T08:09:14;18.47;;;10.37;;
2802;SDS011;1409;51.154;6.938;2024-03-08T08:11:50;16.07;;;10.93;;
2802;SDS011;1409;51.154;6.938;2024-03-08T08:14:18;16.73;;;10.63;;
2802;SDS011;1409;51.154;6.938;2024-03-08T08:16:47;13.70;;;9.90;;
2802;SDS011;1409;51.154;6.938;2024-03-08T08:19:20;16.10;;;10.03;;
2802;SDS011;1409;51.154;6.938;2024-03-08T08:21:49;14.37;;;10.27;;
2802;SDS011;1409;51.154;6.938;2024-03-08T08:24:18;14.10;;;10.10;;
2802;SDS011;1409;51.154;6.938;2024-03-08T08:26:49;20.57;;;12.33;;
2802;SDS011;1409;51.154;6.938;2024-03-08T08:29:19;13.70;;;10.07;;
2802;SDS011;1409;51.154;6.938;2024-03-08T08:31:48;12.47;;;9.23;;
2802;SDS011;1409;51.154;6.938;2024-03-08T08:34:17;16.70;;;10.37;;
2802;SDS011;1409;51.154;6.938;2024-03-08T08:36:45;14.40;;;9.00;;
2802;SDS011;1409;51.154;6.938;2024-03-08T08:39:14;15.40;;;10.30;;
2802;SDS011;1409;51.154;6.938;2024-03-08T08:41:43;13.43;;;9.87;;
2802;SDS011;1409;51.154;6.938;2024-03-08T08:44:13;13.97;;;9.73;;
2802;SDS011;1409;51.154;6.938;2024-03-08T08:46:42;14.03;;;10.00;;
2802;SDS011;1409;51.154;6.938;2024-03-08T08:49:11;16.07;;;10.33;;
2802;SDS011;1409;51.154;6.938;2024-03-08T08:51:41;12.70;;;9.37;;
2802;SDS011;1409;51.154;6.938;2024-03-08T08:54:09;14.10;;;10.27;;
2802;SDS011;1409;51.154;6.938;2024-03-08T08:56:41;14.73;;;9.80;;
2802;SDS011;1409;51.154;6.938;2024-03-08T08:59:10;14.93;;;9.63;;
2802;SDS011;1409;51.154;6.938;2024-03-08T09:01:41;13.80;;;9.13;;
2802;SDS011;1409;51.154;6.938;2024-03-08T09:04:10;17.60;;;9.00;;
2802;SDS011;1409;51.154;6.938;2024-03-08T09:06:39;12.37;;;8.77;;
2802;SDS011;1409;51.154;6.938;2024-03-08T09:09:08;13.73;;;9.40;;
2802;SDS011;1409;51.154;6.938;2024-03-08T09:11:37;13.33;;;9.23;;
2802;SDS011;1409;51.154;6.938;2024-03-08T09:14:08;13.33;;;9.10;;
2802;SDS011;1409;51.154;6.938;2024-03-08T09:16:38;14.43;;;9.30;;
2802;SDS011;1409;51.154;6.938;2024-03-08T09:19:08;11.50;;;8.93;;
2802;SDS011;1409;51.154;6.938;2024-03-08T09:21:38;14.07;;;9.97;;
2802;SDS011;1409;51.154;6.938;2024-03-08T09:24:08;13.17;;;9.40;;
2802;SDS011;1409;51.154;6.938;2024-03-08T09:26:36;11.57;;;8.40;;
2802;SDS011;1409;51.154;6.938;2024-03-08T09:29:07;12.83;;;9.20;;
2802;SDS011;1409;51.154;6.938;2024-03-08T09:31:37;12.17;;;8.57;;
2802;SDS011;1409;51.154;6.938;2024-03-08T09:34:06;13.57;;;9.37;;
2802;SDS011;1409;51.154;6.938;2024-03-08T09:36:37;14.40;;;8.80;;
2802;SDS011;1409;51.154;6.938;2024-03-08T09:39:07;12.73;;;9.57;;
2802;SDS011;1409;51.154;6.938;2024-03-08T09:41:36;13.17;;;9.90;;
2802;SDS011;1409;51.154;6.938;2024-03-08T09:44:05;11.87;;;9.13;;
2802;SDS011;1409;51.154;6.938;2024-03-08T09:46:35;11.97;;;9.43;;
2802;SDS011;1409;51.154;6.938;2024-03-08T09:49:04;13.40;;;9.40;;
2802;SDS011;1409;51.154;6.938;2024-03-08T09:51:33;12.57;;;9.00;;
2802;SDS011;1409;51.154;6.938;2024-03-08T09:54:03;12.07;;;8.67;;
2802;SDS011;1409;51.154;6.938;2024-03-08T09:56:42;10.37;;;7.93;;
2802;SDS011;1409;51.154;6.938;2024-03-08T09:59:11;11.43;;;7.83;;
2802;SDS011;1409;51.154;6.938;2024-03-08T10:02:08;12.00;;;8.27;;
2802;SDS011;1409;51.154;6.938;2024-03-08T10:04:41;10.23;;;7.73;;
2802;SDS011;1409;51.154;6.938;2024-03-08T10:07:12;11.97;;;8.43;;
2802;SDS011;1409;51.154;6.938;2024-03-08T10:09:42;10.07;;;7.70;;
2802;SDS011;1409;51.154;6.938;2024-03-08T10:12:16;11.70;;;7.87;;
2802;SDS011;1409;51.154;6.938;2024-03-08T10:14:46;10.47;;;7.20;;
2802;SDS011;1409;51.154;6.938;2024-03-08T10:17:14;11.27;;;8.00;;
2802;SDS011;1409;51.154;6.938;2024-03-08T10:19:49;12.63;;;8.70;;
2802;SDS011;1409;51.154;6.938;2024-03-08T10:22:19;10.50;;;7.93;;
2802;SDS011;1409;51.154;6.938;2024-03-08T10:24:49;12.30;;;8.97;;
2802;SDS011;1409;51.154;6.938;2024-03-08T10:27:18;11.33;;;7.60;;
2802;SDS011;1409;51.154;6.938;2024-03-08T10:29:47;11.20;;;7.20;;
2802;SDS011;1409;51.154;6.938;2024-03-08T10:32:18;9.77;;;7.33;;
2802;SDS011;1409;51.154;6.938;2024-03-08T10:34:47;12.77;;;7.53;;
2802;SDS011;1409;51.154;6.938;2024-03-08T10:37:17;11.43;;;7.27;;
2802;SDS011;1409;51.154;6.938;2024-03-08T10:39:54;10.47;;;6.73;;
2802;SDS011;1409;51.154;6.938;2024-03-08T10:42:26;9.47;;;7.53;;
2802;SDS011;1409;51.154;6.938;2024-03-08T10:44:58;11.07;;;7.23;;
2802;SDS011;1409;51.154;6.938;2024-03-08T10:47:30;11.20;;;8.30;;
2802;SDS011;1409;51.154;6.938;2024-03-08T10:49:59;10.47;;;7.80;;
2802;SDS011;1409;51.154;6.938;2024-03-08T10:52:31;9.43;;;7.20;;
2802;SDS011;1409;51.154;6.938;2024-03-08T10:55:02;9.20;;;6.47;;
2802;SDS011;1409;51.154;6.938;2024-03-08T10:57:39;10.00;;;7.20;;
2802;SDS011;1409;51.154;6.938;2024-03-08T11:00:08;8.47;;;6.67;;
2802;SDS011;1409;51.154;6.938;2024-03-08T11:02:38;8.63;;;6.50;;
2802;SDS011;1409;51.154;6.938;2024-03-08T11:05:07;9.43;;;6.87;;
2802;SDS011;1409;51.154;6.938;2024-03-08T11:07:40;9.57;;;6.67;;
2802;SDS011;1409;51.154;6.938;2024-03-08T11:10:19;8.33;;;5.93;;
2802;SDS011;1409;51.154;6.938;2024-03-08T11:12:48;7.87;;;5.70;;
2802;SDS011;1409;51.154;6.938;2024-03-08T11:15:17;8.63;;;6.30;;
2802;SDS011;1409;51.154;6.938;2024-03-08T11:17:46;7.80;;;6.37;;
2802;SDS011;1409;51.154;6.938;2024-03-08T11:20:16;8.23;;;5.80;;
2802;SDS011;1409;51.154;6.938;2024-03-08T11:22:50;11.33;;;6.00;;
2802;SDS011;1409;51.154;6.938;2024-03-08T11:28:15;8.37;;;6.67;;
2802;SDS011;1409;51.154;6.938;2024-03-08T11:33:34;7.53;;;6.27;;
2802;SDS011;1409;51.154;6.938;2024-03-08T11:36:03;7.73;;;5.67;;
2802;SDS011;1409;51.154;6.938;2024-03-08T11:38:39;7.90;;;5.70;;
2802;SDS011;1409;51.154;6.938;2024-03-08T11:41:10;7.23;;;5.63;;
2802;SDS011;1409;51.154;6.938;2024-03-08T11:43:46;7.60;;;6.23;;
2802;SDS011;1409;51.154;6.938;2024-03-08T11:46:15;8.00;;;6.27;;
2802;SDS011;1409;51.154;6.938;2024-03-08T11:48:44;9.47;;;6.10;;
2802;SDS011;1409;51.154;6.938;2024-03-08T11:51:15;8.90;;;6.30;;
2802;SDS011;1409;51.154;6.938;2024-03-08T11:53:45;9.60;;;6.23;;
2802;SDS011;1409;51.154;6.938;2024-03-08T11:56:14;8.43;;;6.30;;
2802;SDS011;1409;51.154;6.938;2024-03-08T11:58:52;10.13;;;6.33;;
2802;SDS011;1409;51.154;6.938;2024-03-08T12:01:25;6.93;;;5.50;;
2802;SDS011;1409;51.154;6.938;2024-03-08T12:03:54;8.07;;;6.33;;
2802;SDS011;1409;51.154;6.938;2024-03-08T12:06:25;8.17;;;5.90;;
2802;SDS011;1409;51.154;6.938;2024-03-08T12:08:54;8.63;;;5.50;;
2802;SDS011;1409;51.154;6.938;2024-03-08T12:11:22;7.97;;;6.10;;
2802;SDS011;1409;51.154;6.938;2024-03-08T12:13:54;7.50;;;6.07;;
2802;SDS011;1409;51.154;6.938;2024-03-08T12:16:24;6.57;;;5.50;;
2802;SDS011;1409;51.154;6.938;2024-03-08T12:18:56;8.73;;;5.73;;
2802;SDS011;1409;51.154;6.938;2024-03-08T12:21:25;7.60;;;5.93;;
2802;SDS011;1409;51.154;6.938;2024-03-08T12:24:03;8.60;;;5.97;;
2802;SDS011;1409;51.154;6.938;2024-03-08T12:26:31;7.83;;;6.00;;
2802;SDS011;1409;51.154;6.938;2024-03-08T12:29:16;8.17;;;6.07;;
2802;SDS011;1409;51.154;6.938;2024-03-08T12:31:46;7.50;;;6.00;;
2802;SDS011;1409;51.154;6.938;2024-03-08T12:34:16;8.30;;;5.73;;
2802;SDS011;1409;51.154;6.938;2024-03-08T12:36:45;7.43;;;5.70;;
2802;SDS011;1409;51.154;6.938;2024-03-08T12:39:18;7.00;;;5.23;;
2802;SDS011;1409;51.154;6.938;2024-03-08T12:41:49;8.93;;;5.97;;
2802;SDS011;1409;51.154;6.938;2024-03-08T12:44:19;6.93;;;5.80;;
2802;SDS011;1409;51.154;6.938;2024-03-08T12:46:48;7.33;;;5.90;;
2802;SDS011;1409;51.154;6.938;2024-03-08T12:49:20;8.00;;;5.60;;
2802;SDS011;1409;51.154;6.938;2024-03-08T12:51:49;8.50;;;5.70;;
2802;SDS011;1409;51.154;6.938;2024-03-08T12:54:20;6.40;;;5.57;;
2802;SDS011;1409;51.154;6.938;2024-03-08T12:56:51;7.63;;;5.83;;
2802;SDS011;1409;51.154;6.938;2024-03-08T12:59:21;8.23;;;6.30;;
2802;SDS011;1409;51.154;6.938;2024-03-08T13:01:50;9.07;;;6.40;;
2802;SDS011;1409;51.154;6.938;2024-03-08T13:04:21;8.10;;;6.27;;
2802;SDS011;1409;51.154;6.938;2024-03-08T13:06:52;9.97;;;5.93;;
2802;SDS011;1409;51.154;6.938;2024-03-08T13:09:22;7.93;;;6.03;;
2802;SDS011;1409;51.154;6.938;2024-03-08T13:11:54;6.17;;;5.57;;
2802;SDS011;1409;51.154;6.938;2024-03-08T13:14:25;6.67;;;5.57;;
2802;SDS011;1409;51.154;6.938;2024-03-08T13:16:53;8.50;;;5.63;;
2802;SDS011;1409;51.154;6.938;2024-03-08T13:19:25;8.03;;;6.30;;
2802;SDS011;1409;51.154;6.938;2024-03-08T13:21:54;7.47;;;5.70;;
2802;SDS011;1409;51.154;6.938;2024-03-08T13:24:23;9.23;;;6.10;;
2802;SDS011;1409;51.154;6.938;2024-03-08T13:26:51;10.23;;;6.07;;
2802;SDS011;1409;51.154;6.938;2024-03-08T13:29:21;8.43;;;5.97;;
2802;SDS011;1409;51.154;6.938;2024-03-08T13:31:49;8.13;;;6.10;;
2802;SDS011;1409;51.154;6.938;2024-03-08T13:34:18;6.70;;;5.63;;
2802;SDS011;1409;51.154;6.938;2024-03-08T13:36:55;8.07;;;6.47;;
2802;SDS011;1409;51.154;6.938;2024-03-08T13:39:27;8.97;;;6.43;;
2802;SDS011;1409;51.154;6.938;2024-03-08T13:42:00;8.10;;;5.90;;
2802;SDS011;1409;51.154;6.938;2024-03-08T13:44:31;6.67;;;5.60;;
2802;SDS011;1409;51.154;6.938;2024-03-08T13:47:00;7.30;;;5.33;;
2802;SDS011;1409;51.154;6.938;2024-03-08T13:49:31;7.80;;;5.50;;
2802;SDS011;1409;51.154;6.938;2024-03-08T13:52:00;7.33;;;5.93;;
2802;SDS011;1409;51.154;6.938;2024-03-08T13:54:30;9.40;;;6.13;;
2802;SDS011;1409;51.154;6.938;2024-03-08T13:56:59;7.97;;;5.73;;
2802;SDS011;1409;51.154;6.938;2024-03-08T13:59:30;8.37;;;6.90;;
2802;SDS011;1409;51.154;6.938;2024-03-08T14:01:59;9.57;;;6.57;;
2802;SDS011;1409;51.154;6.938;2024-03-08T14:04:28;7.00;;;5.67;;
2802;SDS011;1409;51.154;6.938;2024-03-08T14:06:57;10.27;;;7.00;;
2802;SDS011;1409;51.154;6.938;2024-03-08T14:09:31;7.37;;;5.60;;
2802;SDS011;1409;51.154;6.938;2024-03-08T14:12:03;8.27;;;6.10;;
2802;SDS011;1409;51.154;6.938;2024-03-08T14:14:33;7.87;;;6.23;;
2802;SDS011;1409;51.154;6.938;2024-03-08T14:17:02;8.77;;;6.53;;
2802;SDS011;1409;51.154;6.938;2024-03-08T14:19:30;10.33;;;6.63;;
2802;SDS011;1409;51.154;6.938;2024-03-08T14:22:00;9.13;;;6.70;;
2802;SDS011;1409;51.154;6.938;2024-03-08T14:24:32;10.40;;;7.63;;
2802;SDS011;1409;51.154;6.938;2024-03-08T14:27:01;9.30;;;6.80;;
2802;SDS011;1409;51.154;6.938;2024-03-08T14:29:30;8.87;;;6.80;;
2802;SDS011;1409;51.154;6.938;2024-03-08T14:31:59;9.40;;;7.00;;
2802;SDS011;1409;51.154;6.938;2024-03-08T14:34:29;10.10;;;7.43;;
2802;SDS011;1409;51.154;6.938;2024-03-08T14:36:58;9.93;;;7.43;;
2802;SDS011;1409;51.154;6.938;2024-03-08T14:39:31;8.60;;;6.90;;
2802;SDS011;1409;51.154;6.938;2024-03-08T14:42:01;8.53;;;7.07;;
2802;SDS011;1409;51.154;6.938;2024-03-08T14:44:30;9.33;;;7.10;;
2802;SDS011;1409;51.154;6.938;2024-03-08T14:46:58;10.33;;;7.37;;
2802;SDS011;1409;51.154;6.938;2024-03-08T14:49:27;9.73;;;7.00;;
2802;SDS011;1409;51.154;6.938;2024-03-08T14:51:56;10.30;;;7.60;;
2802;SDS011;1409;51.154;6.938;2024-03-08T14:54:25;9.00;;;7.10;;
2802;SDS011;1409;51.154;6.938;2024-03-08T14:56:54;11.83;;;7.50;;
2802;SDS011;1409;51.154;6.938;2024-03-08T14:59:23;11.43;;;7.23;;
2802;SDS011;1409;51.154;6.938;2024-03-08T15:01:53;10.53;;;7.40;;
2802;SDS011;1409;51.154;6.938;2024-03-08T15:04:22;9.00;;;7.03;;
2802;SDS011;1409;51.154;6.938;2024-03-08T15:06:50;10.73;;;8.53;;
2802;SDS011;1409;51.154;6.938;2024-03-08T15:09:19;10.53;;;7.90;;
2802;SDS011;1409;51.154;6.938;2024-03-08T15:11:47;9.77;;;7.57;;
2802;SDS011;1409;51.154;6.938;2024-03-08T15:14:18;9.37;;;7.47;;
2802;SDS011;1409;51.154;6.938;2024-03-08T15:16:46;10.07;;;7.70;;
2802;SDS011;1409;51.154;6.938;2024-03-08T15:19:17;8.57;;;7.43;;